createdAt,value
2022-08-20T00:01:16.755Z,100974.22
2022-08-20T00:03:44.747Z,100978.59
2022-08-20T00:06:20.942Z,100977.38
2022-08-20T00:08:48.936Z,100962.81
2022-08-20T00:11:21.695Z,100959.19
2022-08-20T00:13:54.893Z,100950.44
2022-08-20T00:16:24.414Z,100957.59
2022-08-20T00:18:51.954Z,100950.44
2022-08-20T00:21:20.810Z,100944.13
2022-08-20T00:23:52.120Z,100941.75
2022-08-20T00:26:20.070Z,100926.16
2022-08-20T00:28:47.353Z,100905.34
2022-08-20T00:31:18.187Z,100889.59
2022-08-20T00:33:46.188Z,100891.06
2022-08-20T00:36:15.687Z,100892.63
2022-08-20T00:38:44.445Z,100891.47
2022-08-20T00:41:16.376Z,100898.47
2022-08-20T00:43:47.551Z,100894.94
2022-08-20T00:46:19.633Z,100897.50
2022-08-20T00:48:49.770Z,100889.88
2022-08-20T00:51:41.376Z,100894.88
2022-08-20T00:54:18.865Z,100875.50
2022-08-20T00:56:50.914Z,100885.31
2022-08-20T00:59:22.948Z,100883.97
2022-08-20T01:01:55.124Z,100876.56
2022-08-20T01:04:27.900Z,100885.72
2022-08-20T01:06:54.945Z,100900.22
2022-08-20T01:09:49.905Z,100900.34
2022-08-20T01:12:10.612Z,100907.38
2022-08-20T01:14:45.479Z,100914.59
2022-08-20T01:17:22.247Z,100897.38
2022-08-20T01:20:01.451Z,100895.13
2022-08-20T01:22:58.877Z,100897.88
2022-08-20T01:25:39.312Z,100890.31
2022-08-20T01:28:06.985Z,100883.25
2022-08-20T01:30:34.755Z,100881.84
2022-08-20T01:33:02.681Z,100888.91
2022-08-20T01:35:30.036Z,100887.25
2022-08-20T01:37:57.328Z,100890.41
2022-08-20T01:40:38.835Z,100894.31
2022-08-20T01:43:06.687Z,100884.94
2022-08-20T01:45:33.820Z,100878.59
2022-08-20T01:48:01.110Z,100874.63
2022-08-20T01:50:32.459Z,100879.66
2022-08-20T01:53:06.596Z,100880.91
2022-08-20T01:55:33.629Z,100871.84
2022-08-20T01:58:01.472Z,100880.03
2022-08-20T02:00:28.573Z,100867.81
2022-08-20T02:02:55.653Z,100871.47
2022-08-20T02:05:23.175Z,100860.41
2022-08-20T02:07:50.520Z,100869.91
2022-08-20T02:10:19.072Z,100865.16
2022-08-20T02:12:46.545Z,100876.13
2022-08-20T02:15:14.443Z,100875.50
2022-08-20T02:17:42.697Z,100887.34
2022-08-20T02:20:14.466Z,100901.91
2022-08-20T02:22:53.766Z,100935.44
2022-08-20T02:25:27.427Z,100915.06
2022-08-20T02:27:56.734Z,100911.47
2022-08-20T02:30:33.169Z,100922.09
2022-08-20T02:33:05.898Z,100929.13
2022-08-20T02:35:34.793Z,100938.97
2022-08-20T02:38:02.959Z,100938.25
2022-08-20T02:40:31.652Z,100940.28
2022-08-20T02:43:00.930Z,100940.19
2022-08-20T02:45:29.610Z,100937.81
2022-08-20T02:47:57.632Z,100931.09
2022-08-20T02:50:26.455Z,100921.28
2022-08-20T02:52:54.276Z,100929.69
2022-08-20T02:55:26.882Z,100927.03
2022-08-20T02:57:58.452Z,100931.34
2022-08-20T03:00:26.872Z,100933.00
2022-08-20T03:02:54.293Z,100940.28
2022-08-20T03:05:21.541Z,100954.78
2022-08-20T03:07:53.893Z,100975.03
2022-08-20T03:10:32.303Z,100997.03
2022-08-20T03:13:02.720Z,101023.19
2022-08-20T03:15:31.633Z,101003.88
2022-08-20T03:17:58.717Z,100993.47
2022-08-20T03:20:27.320Z,100999.59
2022-08-20T03:22:54.914Z,101019.91
2022-08-20T03:25:22.804Z,101026.19
2022-08-20T03:27:54.022Z,101018.66
2022-08-20T03:30:25.266Z,101008.13
2022-08-20T03:32:52.479Z,101002.66
2022-08-20T03:35:21.657Z,101001.56
2022-08-20T03:37:48.913Z,100985.53
2022-08-20T03:40:21.182Z,100986.97
2022-08-20T03:42:48.266Z,100965.75
2022-08-20T03:45:20.264Z,100971.06
2022-08-20T03:47:48.747Z,100964.00
2022-08-20T03:50:23.602Z,100959.59
2022-08-20T03:52:52.535Z,100974.59
2022-08-20T03:55:20.708Z,100983.59
2022-08-20T03:57:53.191Z,101015.25
2022-08-20T04:00:24.380Z,101042.97
2022-08-20T04:02:51.456Z,101039.81
2022-08-20T04:05:19.242Z,101055.41
2022-08-20T04:07:46.226Z,101053.97
2022-08-20T04:10:14.121Z,101054.34
2022-08-20T04:12:52.731Z,101056.22
2022-08-20T04:15:21.203Z,101037.50
2022-08-20T04:17:54.223Z,101027.47
2022-08-20T04:20:24.131Z,101017.34
2022-08-20T04:22:59.077Z,100989.50
2022-08-20T04:25:35.829Z,100982.06
2022-08-20T04:28:06.188Z,100974.16
2022-08-20T04:30:33.406Z,100966.31
2022-08-20T04:33:01.358Z,100962.44
2022-08-20T04:35:29.554Z,100987.69
2022-08-20T04:38:06.799Z,101001.28
2022-08-20T04:40:54.054Z,100995.41
2022-08-20T04:43:23.292Z,101008.78
2022-08-20T04:45:52.430Z,101013.53
2022-08-20T04:48:20.907Z,101017.50
2022-08-20T04:50:47.917Z,101034.28
2022-08-20T04:53:20.688Z,101039.59
2022-08-20T04:55:51.421Z,101042.91
2022-08-20T04:58:25.976Z,101052.38
2022-08-20T05:01:01.414Z,101075.47
2022-08-20T05:03:29.408Z,101077.41
2022-08-20T05:05:57.045Z,101083.34
2022-08-20T05:08:25.638Z,101102.50
2022-08-20T05:10:58.150Z,101108.56
2022-08-20T05:13:42.837Z,101105.50
2022-08-20T05:16:10.030Z,101118.13
2022-08-20T05:18:37.196Z,101115.78
2022-08-20T05:21:06.188Z,101137.69
2022-08-20T05:23:36.574Z,101131.78
2022-08-20T05:26:09.240Z,101138.53
2022-08-20T05:28:52.715Z,101123.63
2022-08-20T05:31:32.559Z,101127.16
2022-08-20T05:34:02.317Z,101140.13
2022-08-20T05:36:29.913Z,101134.75
2022-08-20T05:38:57.132Z,101143.09
2022-08-20T05:41:28.837Z,101139.19
2022-08-20T05:44:02.968Z,101145.19
2022-08-20T05:46:31.957Z,101146.78
2022-08-20T05:49:02.142Z,101150.75
2022-08-20T05:51:30.028Z,101139.00
2022-08-20T05:53:58.296Z,101140.53
2022-08-20T05:56:30.870Z,101143.38
2022-08-20T05:59:09.844Z,101145.50
2022-08-20T06:01:39.196Z,101146.63
2022-08-20T06:04:28.488Z,101143.97
2022-08-20T06:07:04.220Z,101137.63
2022-08-20T06:09:32.901Z,101157.72
2022-08-20T06:12:03.056Z,101153.03
2022-08-20T06:14:30.912Z,101154.69
2022-08-20T06:17:13.725Z,101146.34
2022-08-20T06:19:44.682Z,101158.22
2022-08-20T06:22:21.257Z,101165.00
2022-08-20T06:24:54.057Z,101156.00
2022-08-20T06:27:22.531Z,101162.75
2022-08-20T06:29:50.953Z,101158.06
2022-08-20T06:32:19.904Z,101168.38
2022-08-20T06:35:02.166Z,101172.91
2022-08-20T06:37:31.936Z,101181.19
2022-08-20T06:40:12.580Z,101180.69
2022-08-20T06:42:45.739Z,101185.38
2022-08-20T06:45:18.543Z,101191.00
2022-08-20T06:47:46.714Z,101189.28
2022-08-20T06:50:17.462Z,101182.72
2022-08-20T06:52:52.131Z,101185.22
2022-08-20T06:55:22.024Z,101180.09
2022-08-20T06:57:56.933Z,101184.97
2022-08-20T07:00:23.966Z,101196.03
2022-08-20T07:02:51.060Z,101205.13
2022-08-20T07:05:18.096Z,101205.13
2022-08-20T07:07:47.362Z,101197.72
2022-08-20T07:10:15.552Z,101197.00
2022-08-20T07:12:43.113Z,101193.28
2022-08-20T07:15:11.738Z,101190.53
2022-08-20T07:17:39.439Z,101179.91
2022-08-20T07:20:09.343Z,101202.44
2022-08-20T07:22:37.023Z,101211.47
2022-08-20T07:25:06.450Z,101211.84
2022-08-20T07:27:34.521Z,101198.50
2022-08-20T07:30:21.277Z,101212.81
2022-08-20T07:32:48.445Z,101210.88
2022-08-20T07:35:17.588Z,101221.16
2022-08-20T07:37:48.403Z,101234.19
2022-08-20T07:40:44.051Z,101227.09
2022-08-20T07:43:17.537Z,101220.44
2022-08-20T07:45:45.164Z,101225.66
2022-08-20T07:48:31.079Z,101220.16
2022-08-20T07:51:05.794Z,101219.28
2022-08-20T07:53:36.011Z,101210.72
2022-08-20T07:56:07.591Z,101208.94
2022-08-20T07:58:38.435Z,101217.00
2022-08-20T08:01:10.666Z,101217.13
2022-08-20T08:03:40.970Z,101233.59
2022-08-20T08:06:30.299Z,101243.94
2022-08-20T08:09:07.707Z,101241.09
2022-08-20T08:11:38.195Z,101251.03
2022-08-20T08:14:08.262Z,101260.19
2022-08-20T08:16:37.088Z,101260.19
2022-08-20T08:19:08.253Z,101265.38
2022-08-20T08:21:36.538Z,101279.34
2022-08-20T08:24:03.979Z,101282.63
2022-08-20T08:26:31.039Z,101287.59
2022-08-20T08:28:58.511Z,101287.44
2022-08-20T08:31:26.335Z,101289.97
2022-08-20T08:33:53.550Z,101279.75
2022-08-20T08:36:20.644Z,101301.91
2022-08-20T08:38:47.927Z,101302.75
2022-08-20T08:41:29.377Z,101308.63
2022-08-20T08:44:00.047Z,101308.97
2022-08-20T08:46:28.306Z,101305.03
2022-08-20T08:49:01.600Z,101307.31
2022-08-20T08:51:47.248Z,101308.66
2022-08-20T08:54:17.575Z,101311.97
2022-08-20T08:56:49.862Z,101313.72
2022-08-20T08:59:19.716Z,101323.31
2022-08-20T09:01:56.940Z,101333.59
2022-08-20T09:04:31.504Z,101332.78
2022-08-20T09:06:59.908Z,101326.78
2022-08-20T09:09:31.530Z,101319.72
2022-08-20T09:12:05.939Z,101333.25
2022-08-20T09:14:33.325Z,101330.91
2022-08-20T09:17:00.525Z,101342.44
2022-08-20T09:19:28.102Z,101347.22
2022-08-20T09:21:55.720Z,101351.94
2022-08-20T09:24:22.816Z,101357.13
2022-08-20T09:26:49.824Z,101363.47
2022-08-20T09:29:17.400Z,101356.78
2022-08-20T09:31:44.422Z,101366.66
2022-08-20T09:34:12.183Z,101367.09
2022-08-20T09:36:39.319Z,101367.09
2022-08-20T09:39:06.734Z,101368.34
2022-08-20T09:41:34.496Z,101363.19
2022-08-20T09:44:02.335Z,101373.03
2022-08-20T09:46:29.751Z,101377.00
2022-08-20T09:48:56.803Z,101374.63
2022-08-20T09:51:23.869Z,101379.38
2022-08-20T09:53:51.264Z,101381.75
2022-08-20T09:56:18.407Z,101392.03
2022-08-20T09:58:51.348Z,101392.81
2022-08-20T10:01:23.873Z,101382.16
2022-08-20T10:03:51.540Z,101404.63
2022-08-20T10:06:20.766Z,101401.44
2022-08-20T10:08:49.155Z,101396.69
2022-08-20T10:11:17.949Z,101399.03
2022-08-20T10:13:45.689Z,101401.44
2022-08-20T10:16:13.211Z,101387.63
2022-08-20T10:18:40.337Z,101400.69
2022-08-20T10:21:13.892Z,101400.28
2022-08-20T10:23:41.800Z,101405.41
2022-08-20T10:26:10.772Z,101390.44
2022-08-20T10:28:38.288Z,101401.06
2022-08-20T10:31:12.722Z,101405.34
2022-08-20T10:33:41.138Z,101409.28
2022-08-20T10:36:10.724Z,101410.38
2022-08-20T10:38:37.896Z,101418.53
2022-08-20T10:41:05.884Z,101409.91
2022-08-20T10:43:32.986Z,101409.22
2022-08-20T10:46:00.511Z,101402.13
2022-08-20T10:48:27.734Z,101405.22
2022-08-20T10:50:55.274Z,101397.94
2022-08-20T10:53:22.357Z,101405.81
2022-08-20T10:55:49.400Z,101404.00
2022-08-20T10:58:16.809Z,101407.78
2022-08-20T11:00:45.804Z,101416.56
2022-08-20T11:03:13.391Z,101416.16
2022-08-20T11:05:40.583Z,101418.47
2022-08-20T11:08:07.733Z,101402.97
2022-08-20T11:10:38.474Z,101409.47
2022-08-20T11:13:07.886Z,101414.16
2022-08-20T11:15:41.049Z,101414.97
2022-08-20T11:18:08.639Z,101425.88
2022-08-20T11:20:36.340Z,101421.13
2022-08-20T11:23:04.102Z,101418.09
2022-08-20T11:25:31.953Z,101421.97
2022-08-20T11:27:59.285Z,101418.47
2022-08-20T11:30:30.754Z,101409.69
2022-08-20T11:32:59.528Z,101417.09
2022-08-20T11:35:49.007Z,101421.91
2022-08-20T11:38:17.465Z,101417.59
2022-08-20T11:40:46.805Z,101417.19
2022-08-20T11:43:17.024Z,101430.84
2022-08-20T11:45:48.468Z,101426.97
2022-08-20T11:48:15.791Z,101419.69
2022-08-20T11:50:42.849Z,101428.56
2022-08-20T11:53:09.937Z,101420.91
2022-08-20T11:55:38.668Z,101416.81
2022-08-20T11:58:06.757Z,101428.00
2022-08-20T12:00:34.802Z,101427.16
2022-08-20T12:03:04.973Z,101429.44
2022-08-20T12:05:32.979Z,101427.94
2022-08-20T12:08:01.993Z,101424.28
2022-08-20T12:10:30.180Z,101421.00
2022-08-20T12:12:57.723Z,101419.06
2022-08-20T12:15:27.007Z,101421.34
2022-08-20T12:17:55.260Z,101425.22
2022-08-20T12:20:25.394Z,101422.59
2022-08-20T12:22:54.056Z,101418.75
2022-08-20T12:25:21.310Z,101416.69
2022-08-20T12:27:48.377Z,101419.91
2022-08-20T12:30:20.023Z,101415.66
2022-08-20T12:32:47.541Z,101429.44
2022-08-20T12:35:16.353Z,101430.56
2022-08-20T12:37:44.223Z,101425.91
2022-08-20T12:40:14.640Z,101440.44
2022-08-20T12:42:43.121Z,101430.88
2022-08-20T12:45:11.666Z,101429.78
2022-08-20T12:47:41.868Z,101420.72
2022-08-20T12:50:18.688Z,101432.53
2022-08-20T12:52:46.360Z,101415.91
2022-08-20T12:55:16.321Z,101422.16
2022-08-20T12:57:46.596Z,101420.28
2022-08-20T13:00:25.877Z,101434.00
2022-08-20T13:02:55.100Z,101426.78
2022-08-20T13:05:22.850Z,101433.22
2022-08-20T13:07:50.711Z,101431.91
2022-08-20T13:10:29.983Z,101440.81
2022-08-20T13:12:57.983Z,101429.38
2022-08-20T13:15:26.188Z,101438.75
2022-08-20T13:17:55.529Z,101441.50
2022-08-20T13:20:26.035Z,101432.06
2022-08-20T13:22:58.831Z,101431.84
2022-08-20T13:25:26.267Z,101420.56
2022-08-20T13:27:58.803Z,101425.94
2022-08-20T13:30:26.075Z,101425.38
2022-08-20T13:32:53.415Z,101420.34
2022-08-20T13:35:21.094Z,101413.53
2022-08-20T13:37:49.875Z,101422.47
2022-08-20T13:40:17.699Z,101427.16
2022-08-20T13:42:45.618Z,101412.38
2022-08-20T13:45:12.754Z,101414.84
2022-08-20T13:47:42.150Z,101411.34
2022-08-20T13:50:16.259Z,101409.19
2022-08-20T13:52:44.676Z,101405.06
2022-08-20T13:55:15.857Z,101410.19
2022-08-20T13:57:44.868Z,101409.72
2022-08-20T14:00:19.854Z,101407.84
2022-08-20T14:02:49.628Z,101410.72
2022-08-20T14:05:18.431Z,101419.31
2022-08-20T14:07:48.265Z,101414.72
2022-08-20T14:10:26.721Z,101422.66
2022-08-20T14:12:54.265Z,101414.72
2022-08-20T14:15:24.483Z,101411.69
2022-08-20T14:17:54.508Z,101417.34
2022-08-20T14:20:25.568Z,101412.56
2022-08-20T14:22:57.371Z,101405.84
2022-08-20T14:25:27.132Z,101405.22
2022-08-20T14:27:58.942Z,101400.28
2022-08-20T14:30:30.116Z,101409.69
2022-08-20T14:32:57.562Z,101414.78
2022-08-20T14:35:25.344Z,101416.28
2022-08-20T14:37:59.532Z,101425.06
2022-08-20T14:40:28.358Z,101415.81
2022-08-20T14:42:56.319Z,101412.41
2022-08-20T14:45:24.233Z,101419.28
2022-08-20T14:47:54.419Z,101408.88
2022-08-20T14:50:32.750Z,101413.53
2022-08-20T14:53:00.957Z,101419.09
2022-08-20T14:55:36.219Z,101420.38
2022-08-20T14:58:11.566Z,101419.91
2022-08-20T15:00:39.853Z,101427.59
2022-08-20T15:03:07.372Z,101426.19
2022-08-20T15:05:35.293Z,101428.66
2022-08-20T15:08:07.939Z,101424.34
2022-08-20T15:10:36.283Z,101416.03
2022-08-20T15:13:03.999Z,101431.63
2022-08-20T15:15:31.076Z,101429.56
2022-08-20T15:18:03.819Z,101422.06
2022-08-20T15:20:32.808Z,101427.31
2022-08-20T15:23:01.232Z,101428.81
2022-08-20T15:25:36.938Z,101416.81
2022-08-20T15:28:08.183Z,101431.56
2022-08-20T15:30:36.670Z,101416.50
2022-08-20T15:33:04.488Z,101425.88
2022-08-20T15:35:32.218Z,101425.50
2022-08-20T15:37:59.866Z,101428.69
2022-08-20T15:40:29.210Z,101440.97
2022-08-20T15:43:01.321Z,101431.09
2022-08-20T15:45:28.604Z,101438.63
2022-08-20T15:48:09.887Z,101436.47
2022-08-20T15:51:10.579Z,101431.66
2022-08-20T15:53:56.586Z,101438.88
2022-08-20T15:56:23.855Z,101448.13
2022-08-20T15:59:06.401Z,101443.84
2022-08-20T16:01:50.445Z,101452.38
2022-08-20T16:04:30.044Z,101447.69
2022-08-20T16:07:02.489Z,101459.56
2022-08-20T16:09:38.354Z,101451.09
2022-08-20T16:12:18.354Z,101447.59
2022-08-20T16:14:48.090Z,101455.91
2022-08-20T16:17:21.782Z,101461.63
2022-08-20T16:19:58.252Z,101463.00
2022-08-20T16:22:30.066Z,101470.94
2022-08-20T16:24:57.369Z,101474.09
2022-08-20T16:27:54.882Z,101476.44
2022-08-20T16:30:46.321Z,101473.59
2022-08-20T16:33:22.343Z,101467.66
2022-08-20T16:36:24.023Z,101470.69
2022-08-20T16:38:59.153Z,101467.44
2022-08-20T16:41:31.976Z,101480.13
2022-08-20T16:44:24.915Z,101488.31
2022-08-20T16:47:19.734Z,101487.06
2022-08-20T16:49:57.279Z,101475.22
2022-08-20T16:52:25.466Z,101482.69
2022-08-20T16:54:52.875Z,101487.81
2022-08-20T16:57:20.257Z,101483.03
2022-08-20T17:00:19.513Z,101482.97
2022-08-20T17:02:56.480Z,101487.63
2022-08-20T17:05:28.432Z,101480.06
2022-08-20T17:08:01.401Z,101483.16
2022-08-20T17:10:33.928Z,101484.41
2022-08-20T17:13:19.451Z,101482.47
2022-08-20T17:16:05.790Z,101476.50
2022-08-20T17:18:39.073Z,101475.66
2022-08-20T17:21:26.512Z,101480.38
2022-08-20T17:24:00.668Z,101478.50
2022-08-20T17:26:36.915Z,101486.78
2022-08-20T17:29:24.393Z,101493.41
2022-08-20T17:31:54.930Z,101490.28
2022-08-20T17:34:28.287Z,101492.09
2022-08-20T17:37:00.893Z,101503.03
2022-08-20T17:39:29.548Z,101491.91
2022-08-20T17:42:09.729Z,101494.28
2022-08-20T17:44:42.552Z,101502.94
2022-08-20T17:47:17.992Z,101500.41
2022-08-20T17:50:01.985Z,101510.97
2022-08-20T17:52:45.554Z,101506.31
2022-08-20T17:55:13.516Z,101512.38
2022-08-20T17:57:44.222Z,101516.25
2022-08-20T18:00:16.601Z,101523.66
2022-08-20T18:02:44.555Z,101523.91
2022-08-20T18:05:21.039Z,101527.34
2022-08-20T18:08:17.127Z,101516.31
2022-08-20T18:11:02.019Z,101528.69
2022-08-20T18:13:48.303Z,101529.31
2022-08-20T18:16:43.079Z,101535.50
2022-08-20T18:19:17.791Z,101542.53
2022-08-20T18:22:09.520Z,101543.56
2022-08-20T18:24:45.215Z,101541.44
2022-08-20T18:27:16.852Z,101547.19
2022-08-20T18:29:48.916Z,101543.56
2022-08-20T18:32:30.201Z,101548.63
2022-08-20T18:35:18.004Z,101560.69
2022-08-20T18:37:45.392Z,101557.03
2022-08-20T18:40:34.697Z,101556.41
2022-08-20T18:43:12.920Z,101560.94
2022-08-20T18:45:40.210Z,101575.72
2022-08-20T18:48:07.729Z,101568.63
2022-08-20T18:50:40.878Z,101562.72
2022-08-20T18:53:17.248Z,101576.34
2022-08-20T18:55:47.354Z,101576.53
2022-08-20T18:58:29.821Z,101578.34
2022-08-20T19:00:58.232Z,101574.69
2022-08-20T19:03:32.119Z,101571.66
2022-08-20T19:06:08.160Z,101578.28
2022-08-20T19:09:06.176Z,101575.88
2022-08-20T19:12:01.709Z,101581.91
2022-08-20T19:14:50.779Z,101578.59
2022-08-20T19:17:36.091Z,101578.41
2022-08-20T19:20:23.746Z,101573.66
2022-08-20T19:22:54.277Z,101578.19
2022-08-20T19:25:31.502Z,101573.75
2022-08-20T19:28:16.825Z,101571.56
2022-08-20T19:30:46.823Z,101582.44
2022-08-20T19:33:14.158Z,101579.44
2022-08-20T19:35:41.661Z,101572.53
2022-08-20T19:38:16.530Z,101573.41
2022-08-20T19:40:46.268Z,101576.69
2022-08-20T19:43:20.087Z,101580.59
2022-08-20T19:45:54.478Z,101587.75
2022-08-20T19:49:03.677Z,101584.88
2022-08-20T19:51:37.215Z,101579.16
2022-08-20T19:54:23.437Z,101592.22
2022-08-20T19:56:55.459Z,101591.50
2022-08-20T19:59:26.508Z,101588.66
2022-08-20T20:01:58.903Z,101586.97
2022-08-20T20:04:29.761Z,101583.34
2022-08-20T20:06:58.893Z,101589.88
2022-08-20T20:09:29.742Z,101593.69
2022-08-20T20:12:05.498Z,101592.03
2022-08-20T20:14:35.618Z,101593.41
2022-08-20T20:17:10.202Z,101598.25
2022-08-20T20:19:49.166Z,101590.59
2022-08-20T20:22:26.759Z,101596.69
2022-08-20T20:25:22.086Z,101596.06
2022-08-20T20:27:52.626Z,101598.00
2022-08-20T20:30:30.567Z,101601.53
2022-08-20T20:33:03.046Z,101598.94
2022-08-20T20:35:33.649Z,101596.91
2022-08-20T20:38:08.881Z,101584.59
2022-08-20T20:40:54.655Z,101596.94
2022-08-20T20:43:29.508Z,101594.84
2022-08-20T20:46:02.373Z,101594.06
2022-08-20T20:48:49.662Z,101585.53
2022-08-20T20:51:29.850Z,101592.13
2022-08-20T20:54:03.693Z,101593.97
2022-08-20T20:56:33.092Z,101596.13
2022-08-20T20:59:06.237Z,101597.06
2022-08-20T21:01:47.969Z,101592.41
2022-08-20T21:04:22.245Z,101595.00
2022-08-20T21:06:51.515Z,101599.22
2022-08-20T21:09:20.415Z,101595.56
2022-08-20T21:11:48.168Z,101599.56
2022-08-20T21:14:16.283Z,101598.63
2022-08-20T21:16:43.756Z,101585.31
2022-08-20T21:19:11.996Z,101593.50
2022-08-20T21:21:39.857Z,101596.81
2022-08-20T21:24:08.046Z,101602.72
2022-08-20T21:26:36.557Z,101597.72
2022-08-20T21:29:06.500Z,101592.56
2022-08-20T21:31:36.470Z,101585.88
2022-08-20T21:34:03.905Z,101595.50
2022-08-20T21:36:31.342Z,101590.38
2022-08-20T21:38:58.400Z,101593.69
2022-08-20T21:41:29.978Z,101592.09
2022-08-20T21:43:58.995Z,101601.09
2022-08-20T21:46:29.325Z,101584.41
2022-08-20T21:48:56.568Z,101591.09
2022-08-20T21:51:23.717Z,101592.81
2022-08-20T21:53:51.222Z,101594.47
2022-08-20T21:56:18.971Z,101586.22
2022-08-20T21:58:47.501Z,101596.50
2022-08-20T22:01:15.986Z,101588.75
2022-08-20T22:03:43.582Z,101584.44
2022-08-20T22:06:13.741Z,101572.41
2022-08-20T22:08:41.418Z,101584.81
2022-08-20T22:11:11.137Z,101581.13
2022-08-20T22:13:40.103Z,101587.47
2022-08-20T22:16:09.619Z,101589.59
2022-08-20T22:18:37.428Z,101586.69
2022-08-20T22:21:08.590Z,101575.44
2022-08-20T22:23:36.275Z,101570.16
2022-08-20T22:26:03.347Z,101572.09
2022-08-20T22:28:30.504Z,101581.06
2022-08-20T22:30:57.769Z,101566.84
2022-08-20T22:33:25.151Z,101572.28
2022-08-20T22:35:54.735Z,101576.31
2022-08-20T22:38:22.908Z,101570.22
2022-08-20T22:40:50.085Z,101563.03
2022-08-20T22:43:17.821Z,101558.91
2022-08-20T22:45:47.424Z,101558.59
2022-08-20T22:48:17.441Z,101541.66
2022-08-20T22:50:45.417Z,101547.09
2022-08-20T22:53:14.231Z,101552.72
2022-08-20T22:55:41.499Z,101544.91
2022-08-20T22:58:08.722Z,101546.66
2022-08-20T23:00:38.193Z,101545.69
2022-08-20T23:03:07.008Z,101537.88
2022-08-20T23:05:36.751Z,101541.03
2022-08-20T23:08:06.105Z,101536.56
2022-08-20T23:10:35.077Z,101538.97
2022-08-20T23:13:02.156Z,101534.78
2022-08-20T23:15:29.506Z,101532.91
2022-08-20T23:18:02.288Z,101538.66
2022-08-20T23:20:29.649Z,101529.09
2022-08-20T23:22:57.451Z,101529.09
2022-08-20T23:25:25.048Z,101514.50
2022-08-20T23:28:03.648Z,101523.50
2022-08-20T23:30:31.967Z,101516.91
2022-08-20T23:33:01.544Z,101520.13
2022-08-20T23:35:31.986Z,101511.63
2022-08-20T23:38:00.760Z,101512.38
2022-08-20T23:40:29.074Z,101519.69
2022-08-20T23:42:57.374Z,101505.91
2022-08-20T23:45:25.514Z,101495.97
2022-08-20T23:47:52.778Z,101508.66
2022-08-20T23:50:24.285Z,101515.56
2022-08-20T23:52:51.659Z,101504.22
2022-08-20T23:55:19.506Z,101511.94
2022-08-20T23:57:46.558Z,101509.56
